Echo Bay, Canada
Current Conditions -  °F | °C
As of 1:55 PM on Thursday 23 Oct 2014 (Local Time) from KANJ Reporting Station
Clear Clear  
Wind Chill: 50°   Ceiling: Unl
Heat Index: 50°   Visibility: 10mi
Dew Point: 40°   Wind: 5mph
Humidity: 68%   Direction: 110°ESE
Pressure: 30.14"   Gusts: NA
Location:  46.48°N, 84.07°W
Report Text: KANJ 231755Z AUTO 11004KT 10SM CLR 10/04 A3014 RMK AO2 SLP210 I6001 T01000044 10106 21006 58022
Loading
Personal Weather Stations






























Interactive Weather Map
Tropical Storm Tracking
New forecast layout! Learn more

10-Day Weather Forecast

Advertisements
Track Severe Weather on mobile